createdAt,value
2023-05-12T00:00:03.812Z,8.60
2023-05-12T00:02:32.695Z,8.60
2023-05-12T00:05:09.852Z,8.70
2023-05-12T00:07:41.641Z,8.70
2023-05-12T00:10:18.036Z,8.70
2023-05-12T00:12:46.885Z,8.70
2023-05-12T00:15:15.476Z,8.80
2023-05-12T00:17:44.133Z,8.80
2023-05-12T00:20:14.660Z,8.70
2023-05-12T00:22:43.694Z,8.80
2023-05-12T00:25:12.220Z,8.80
2023-05-12T00:27:41.016Z,8.80
2023-05-12T00:30:10.805Z,8.80
2023-05-12T00:32:39.493Z,8.80
2023-05-12T00:35:08.539Z,8.90
2023-05-12T00:37:38.523Z,8.90
2023-05-12T00:40:08.329Z,8.90
2023-05-12T00:42:36.969Z,8.90
2023-05-12T00:45:06.421Z,8.90
2023-05-12T00:47:35.556Z,8.90
2023-05-12T00:50:05.183Z,9.00
2023-05-12T00:52:33.775Z,9.10
2023-05-12T00:55:05.550Z,9.20
2023-05-12T00:57:35.058Z,9.20
2023-05-12T01:00:05.192Z,9.30
2023-05-12T01:02:33.855Z,9.20
2023-05-12T01:05:02.784Z,9.30
2023-05-12T01:07:34.333Z,9.30
2023-05-12T01:10:04.427Z,9.30
2023-05-12T01:12:33.870Z,9.30
2023-05-12T01:15:02.613Z,9.40
2023-05-12T01:17:34.500Z,9.40
2023-05-12T01:20:05.645Z,9.40
2023-05-12T01:22:35.144Z,9.40
2023-05-12T01:25:07.809Z,9.30
2023-05-12T01:27:40.020Z,9.30
2023-05-12T01:30:10.068Z,9.30
2023-05-12T01:32:40.894Z,9.30
2023-05-12T01:35:10.076Z,9.30
2023-05-12T01:37:38.710Z,9.40
2023-05-12T01:40:08.521Z,9.30
2023-05-12T01:42:40.434Z,9.40
2023-05-12T01:45:10.383Z,9.40
2023-05-12T01:47:38.922Z,9.40
2023-05-12T01:50:08.245Z,9.30
2023-05-12T01:52:37.029Z,9.30
2023-05-12T01:55:06.320Z,9.30
2023-05-12T01:57:34.824Z,9.40
2023-05-12T02:00:05.205Z,9.40
2023-05-12T02:02:40.298Z,9.40
2023-05-12T02:05:13.637Z,9.40
2023-05-12T02:07:48.426Z,9.40
2023-05-12T02:10:19.450Z,9.30
2023-05-12T02:12:48.674Z,9.30
2023-05-12T02:15:18.767Z,9.20
2023-05-12T02:17:47.264Z,9.10
2023-05-12T02:20:15.854Z,9.10
2023-05-12T02:22:44.383Z,9.10
2023-05-12T02:25:13.393Z,9.10
2023-05-12T02:27:41.953Z,9.10
2023-05-12T02:30:10.956Z,9.10
2023-05-12T02:32:41.272Z,9.00
2023-05-12T02:35:10.884Z,9.00
2023-05-12T02:37:39.961Z,9.00
2023-05-12T02:40:12.237Z,8.90
2023-05-12T02:42:40.848Z,8.90
2023-05-12T02:45:12.956Z,8.90
2023-05-12T02:47:42.977Z,8.80
2023-05-12T02:50:11.909Z,8.80
2023-05-12T02:52:40.477Z,8.80
2023-05-12T02:55:09.638Z,8.80
2023-05-12T02:57:38.292Z,8.70
2023-05-12T03:00:08.295Z,8.70
2023-05-12T03:02:38.579Z,8.70
2023-05-12T03:05:10.079Z,8.70
2023-05-12T03:07:39.137Z,8.70
2023-05-12T03:10:09.075Z,8.70
2023-05-12T03:12:37.706Z,8.70
2023-05-12T03:15:06.978Z,8.70
2023-05-12T03:17:35.809Z,8.70
2023-05-12T03:20:04.705Z,8.70
2023-05-12T03:22:34.702Z,8.70
2023-05-12T03:25:04.160Z,8.80
2023-05-12T03:27:33.862Z,8.80
2023-05-12T03:30:02.405Z,8.70
2023-05-12T03:32:31.180Z,8.80
2023-05-12T03:34:59.959Z,8.80
2023-05-12T03:37:28.522Z,8.80
2023-05-12T03:39:58.793Z,8.90
2023-05-12T03:42:27.357Z,9.00
2023-05-12T03:44:55.867Z,9.10
2023-05-12T03:47:25.553Z,9.20
2023-05-12T03:49:55.007Z,9.20
2023-05-12T03:52:23.602Z,9.30
2023-05-12T03:54:52.461Z,9.30
2023-05-12T03:57:22.528Z,9.50
2023-05-12T03:59:51.112Z,9.80
2023-05-12T04:02:19.712Z,10.00
2023-05-12T04:04:48.538Z,11.00
2023-05-12T04:07:17.218Z,12.80
2023-05-12T04:09:45.783Z,14.60
2023-05-12T04:12:14.279Z,16.20
2023-05-12T04:14:44.265Z,17.60
2023-05-12T04:17:12.795Z,18.50
2023-05-12T04:19:41.371Z,19.40
2023-05-12T04:22:09.962Z,19.90
2023-05-12T04:24:39.798Z,20.30
2023-05-12T04:27:08.564Z,20.80
2023-05-12T04:29:37.255Z,21.20
2023-05-12T04:32:08.451Z,21.10
2023-05-12T04:34:37.229Z,20.60
2023-05-12T04:37:06.004Z,19.90
2023-05-12T04:39:34.720Z,18.60
2023-05-12T04:42:03.282Z,17.30
2023-05-12T04:44:31.830Z,16.00
2023-05-12T04:47:00.467Z,15.10
2023-05-12T04:49:30.739Z,14.40
2023-05-12T04:51:59.457Z,13.90
2023-05-12T04:54:28.077Z,13.50
2023-05-12T04:56:56.830Z,13.40
2023-05-12T04:59:25.634Z,13.20
2023-05-12T05:01:54.755Z,13.10
2023-05-12T05:04:23.560Z,13.00
2023-05-12T05:06:55.840Z,13.00
2023-05-12T05:09:24.502Z,12.90
2023-05-12T05:11:53.279Z,12.90
2023-05-12T05:14:24.810Z,12.80
2023-05-12T05:16:54.316Z,12.90
2023-05-12T05:19:35.263Z,12.80
2023-05-12T05:22:13.057Z,12.80
2023-05-12T05:24:41.566Z,12.80
2023-05-12T05:27:10.335Z,12.90
2023-05-12T05:29:38.895Z,12.80
2023-05-12T05:32:08.198Z,12.90
2023-05-12T05:34:36.905Z,13.00
2023-05-12T05:37:05.954Z,13.00
2023-05-12T05:39:36.033Z,13.00
2023-05-12T05:42:04.864Z,13.20
2023-05-12T05:44:33.454Z,13.20
2023-05-12T05:47:03.333Z,13.30
2023-05-12T05:49:32.040Z,13.30
2023-05-12T05:52:00.631Z,13.40
2023-05-12T05:54:29.301Z,13.50
2023-05-12T05:57:00.902Z,13.60
2023-05-12T05:59:29.617Z,13.60
2023-05-12T06:01:58.271Z,13.70
2023-05-12T06:04:27.021Z,13.70
2023-05-12T06:06:55.548Z,13.80
2023-05-12T06:09:24.426Z,13.90
2023-05-12T06:11:52.995Z,14.00
2023-05-12T06:14:23.095Z,14.10
2023-05-12T06:16:52.106Z,14.30
2023-05-12T06:19:21.280Z,14.40
2023-05-12T06:21:49.897Z,14.50
2023-05-12T06:24:18.527Z,14.60
2023-05-12T06:26:47.221Z,14.60
2023-05-12T06:29:16.102Z,14.60
2023-05-12T06:31:46.292Z,14.80
2023-05-12T06:34:16.516Z,14.90
2023-05-12T06:36:46.284Z,15.00
2023-05-12T06:39:14.981Z,15.10
2023-05-12T06:41:43.936Z,15.20
2023-05-12T06:44:13.140Z,15.20
2023-05-12T06:46:42.270Z,15.40
2023-05-12T06:49:12.644Z,15.40
2023-05-12T06:51:41.380Z,15.50
2023-05-12T06:54:10.130Z,15.60
2023-05-12T06:56:38.922Z,15.50
2023-05-12T06:59:07.817Z,15.60
2023-05-12T07:01:36.603Z,15.80
2023-05-12T07:04:05.686Z,15.90
2023-05-12T07:06:35.907Z,16.00
2023-05-12T07:09:05.260Z,16.10
2023-05-12T07:11:34.834Z,16.20
2023-05-12T07:14:12.081Z,16.30
2023-05-12T07:16:41.095Z,16.30
2023-05-12T07:19:10.285Z,16.40
2023-05-12T07:21:41.430Z,16.40
2023-05-12T07:24:10.361Z,16.40
2023-05-12T07:26:39.251Z,16.40
2023-05-12T07:29:13.604Z,16.50
2023-05-12T07:31:45.761Z,16.60
2023-05-12T07:34:15.300Z,16.70
2023-05-12T07:36:45.382Z,16.80
2023-05-12T07:39:15.293Z,16.80
2023-05-12T07:41:44.134Z,16.80
2023-05-12T07:44:12.829Z,16.80
2023-05-12T07:46:41.511Z,17.00
2023-05-12T07:49:10.072Z,16.90
2023-05-12T07:51:39.521Z,16.90
2023-05-12T07:54:09.925Z,17.00
2023-05-12T07:56:38.450Z,17.00
2023-05-12T07:59:07.558Z,17.00
2023-05-12T08:01:36.272Z,17.00
2023-05-12T08:04:05.036Z,17.10
2023-05-12T08:06:34.386Z,17.20
2023-05-12T08:09:03.213Z,17.30
2023-05-12T08:11:36.338Z,17.30
2023-05-12T08:14:06.365Z,17.30
2023-05-12T08:16:35.263Z,17.40
2023-05-12T08:19:04.098Z,17.30
2023-05-12T08:21:32.871Z,17.40
2023-05-12T08:24:01.686Z,17.40
2023-05-12T08:26:32.885Z,17.30
2023-05-12T08:29:06.771Z,17.30
2023-05-12T08:31:35.649Z,17.40
2023-05-12T08:34:10.410Z,17.50
2023-05-12T08:36:39.836Z,17.50
2023-05-12T08:39:10.357Z,17.60
2023-05-12T08:41:45.959Z,17.60
2023-05-12T08:44:16.995Z,17.50
2023-05-12T08:46:45.854Z,17.50
2023-05-12T08:49:18.422Z,17.50
2023-05-12T08:51:57.205Z,17.60
2023-05-12T08:54:29.055Z,17.80
2023-05-12T08:59:31.745Z,17.70
2023-05-12T09:02:03.258Z,17.80
2023-05-12T09:04:33.338Z,17.80
2023-05-12T09:07:04.345Z,17.80
2023-05-12T09:09:37.933Z,17.90
2023-05-12T09:12:09.183Z,17.90
2023-05-12T09:14:40.715Z,18.00
2023-05-12T09:17:09.545Z,18.10
2023-05-12T09:19:38.398Z,18.10
2023-05-12T09:22:08.303Z,18.20
2023-05-12T09:24:40.866Z,18.30
2023-05-12T09:27:09.861Z,18.40
2023-05-12T09:29:59.118Z,18.30
2023-05-12T09:32:35.350Z,18.30
2023-05-12T09:35:05.943Z,18.20
2023-05-12T09:37:35.756Z,18.30
2023-05-12T09:40:05.528Z,18.30
2023-05-12T09:42:36.026Z,18.30
2023-05-12T09:45:07.152Z,18.20
2023-05-12T09:47:40.144Z,18.30
2023-05-12T09:50:10.391Z,18.30
2023-05-12T09:52:41.172Z,18.30
2023-05-12T09:55:11.597Z,18.40
2023-05-12T09:57:42.163Z,18.40
2023-05-12T10:00:34.596Z,18.70
2023-05-12T10:03:11.314Z,18.60
2023-05-12T10:05:47.697Z,18.70
2023-05-12T10:08:22.144Z,18.50
2023-05-12T10:10:53.055Z,18.70
2023-05-12T10:13:22.671Z,18.50
2023-05-12T10:15:56.697Z,18.80
2023-05-12T10:18:26.551Z,18.80
2023-05-12T10:20:55.926Z,18.80
2023-05-12T10:23:27.511Z,18.70
2023-05-12T10:26:03.766Z,18.90
2023-05-12T10:28:53.208Z,19.00
2023-05-12T10:31:25.110Z,19.00
2023-05-12T10:34:00.931Z,19.10
2023-05-12T10:36:29.991Z,19.10
2023-05-12T10:39:07.184Z,19.10
2023-05-12T10:41:36.818Z,19.10
2023-05-12T10:44:06.305Z,19.10
2023-05-12T10:46:38.813Z,19.20
2023-05-12T10:49:15.784Z,19.10
2023-05-12T10:51:51.204Z,19.10
2023-05-12T10:54:27.266Z,19.20
2023-05-12T10:57:08.002Z,19.30
2023-05-12T10:59:38.114Z,19.30
2023-05-12T11:02:18.741Z,19.30
2023-05-12T11:04:54.237Z,19.30
2023-05-12T11:07:24.682Z,19.30
2023-05-12T11:09:58.571Z,19.40
2023-05-12T11:12:30.262Z,19.40
2023-05-12T11:15:01.998Z,19.50
2023-05-12T11:17:32.280Z,19.60
2023-05-12T11:20:04.114Z,19.70
2023-05-12T11:22:33.437Z,19.80
2023-05-12T11:25:11.685Z,19.80
2023-05-12T11:27:53.052Z,19.80
2023-05-12T11:30:21.946Z,19.90
2023-05-12T11:33:02.454Z,20.00
2023-05-12T11:35:33.057Z,20.10
2023-05-12T11:38:03.114Z,20.00
2023-05-12T11:40:32.031Z,20.00
2023-05-12T11:43:14.885Z,20.00
2023-05-12T11:45:47.476Z,20.10
2023-05-12T11:48:17.661Z,20.10
2023-05-12T11:50:48.379Z,20.00
2023-05-12T11:53:18.801Z,19.90
2023-05-12T11:55:51.961Z,19.80
2023-05-12T11:58:22.974Z,19.80
2023-05-12T12:00:52.364Z,19.70
2023-05-12T12:03:24.323Z,19.80
2023-05-12T12:06:01.330Z,19.80
2023-05-12T12:08:30.499Z,19.90
2023-05-12T12:11:01.332Z,19.90
2023-05-12T12:13:34.393Z,19.90
2023-05-12T12:16:02.996Z,19.90
2023-05-12T12:18:33.842Z,20.00
2023-05-12T12:21:02.623Z,20.10
2023-05-12T12:23:47.661Z,20.20
2023-05-12T12:26:21.089Z,20.30
2023-05-12T12:28:53.020Z,20.30
2023-05-12T12:31:25.112Z,20.40
2023-05-12T12:33:55.626Z,20.40
2023-05-12T12:36:24.404Z,20.50
2023-05-12T12:38:53.053Z,20.70
2023-05-12T12:41:22.122Z,20.80
2023-05-12T12:43:54.203Z,21.00
2023-05-12T12:46:23.077Z,21.10
2023-05-12T12:48:51.811Z,21.30
2023-05-12T12:51:21.858Z,21.30
2023-05-12T12:53:50.677Z,21.30
2023-05-12T12:56:19.815Z,21.40
2023-05-12T12:58:48.578Z,21.60
2023-05-12T13:01:17.400Z,21.80
2023-05-12T13:03:46.367Z,21.80
2023-05-12T13:06:15.543Z,21.70
2023-05-12T13:08:45.953Z,21.70
2023-05-12T13:11:16.734Z,21.40
2023-05-12T13:13:45.529Z,21.30
2023-05-12T13:16:14.572Z,21.30
2023-05-12T13:18:43.719Z,21.30
2023-05-12T13:21:12.917Z,21.40
2023-05-12T13:23:46.704Z,21.50
2023-05-12T13:26:16.179Z,21.50
2023-05-12T13:28:45.213Z,21.40
2023-05-12T13:31:14.473Z,21.50
2023-05-12T13:33:43.449Z,21.60
2023-05-12T13:36:12.656Z,21.60
2023-05-12T13:38:41.456Z,21.50
2023-05-12T13:41:12.055Z,21.40
2023-05-12T13:43:40.811Z,21.40
2023-05-12T13:46:10.195Z,21.30
2023-05-12T13:48:39.155Z,21.30
2023-05-12T13:51:08.208Z,21.30
2023-05-12T13:53:40.002Z,21.10
2023-05-12T13:56:10.898Z,20.90
2023-05-12T13:58:39.556Z,20.70
2023-05-12T14:01:08.786Z,20.50
2023-05-12T14:03:39.556Z,20.40
2023-05-12T14:06:08.313Z,20.30
2023-05-12T14:08:40.329Z,20.30
2023-05-12T14:11:11.619Z,20.30
2023-05-12T14:13:40.314Z,20.40
2023-05-12T14:16:10.030Z,20.60
2023-05-12T14:18:39.951Z,20.70
2023-05-12T14:21:10.461Z,21.00
2023-05-12T14:23:39.026Z,21.20
2023-05-12T14:26:07.724Z,21.30
2023-05-12T14:28:38.996Z,21.40
2023-05-12T14:31:08.044Z,21.40
2023-05-12T14:33:36.739Z,21.40
2023-05-12T14:36:07.887Z,21.30
2023-05-12T14:38:40.544Z,21.20
2023-05-12T14:41:09.870Z,21.00
2023-05-12T14:43:40.202Z,20.90
2023-05-12T14:46:09.313Z,21.00
2023-05-12T14:48:38.185Z,21.40
2023-05-12T14:51:07.188Z,21.70
2023-05-12T14:53:35.816Z,22.10
2023-05-12T14:56:04.484Z,22.20
2023-05-12T14:58:33.370Z,22.30
2023-05-12T15:01:06.340Z,22.60
2023-05-12T15:03:36.947Z,22.90
2023-05-12T15:06:08.220Z,23.30
2023-05-12T15:08:37.187Z,23.80
2023-05-12T15:11:06.336Z,24.20
2023-05-12T15:13:35.119Z,24.40
2023-05-12T15:16:10.773Z,24.50
2023-05-12T15:18:39.486Z,24.60
2023-05-12T15:21:08.167Z,24.60
2023-05-12T15:23:36.925Z,24.70
2023-05-12T15:26:27.040Z,24.80
2023-05-12T15:28:57.119Z,24.70
2023-05-12T15:31:30.062Z,24.50
2023-05-12T15:33:59.043Z,24.10
2023-05-12T15:36:27.836Z,23.50
2023-05-12T15:38:56.860Z,23.10
2023-05-12T15:41:26.131Z,22.70
2023-05-12T15:43:54.980Z,22.40
2023-05-12T15:46:24.460Z,21.90
2023-05-12T15:48:54.597Z,21.50
2023-05-12T15:51:23.321Z,21.20
2023-05-12T15:53:52.335Z,20.90
2023-05-12T15:56:21.591Z,20.70
2023-05-12T15:58:50.190Z,20.50
2023-05-12T16:01:18.855Z,20.30
2023-05-12T16:03:47.680Z,20.20
2023-05-12T16:06:18.100Z,20.20
2023-05-12T16:08:46.883Z,20.00
2023-05-12T16:11:15.623Z,20.00
2023-05-12T16:13:44.664Z,20.00
2023-05-12T16:16:17.912Z,19.90
2023-05-12T16:18:46.706Z,19.80
2023-05-12T16:21:16.744Z,19.70
2023-05-12T16:23:48.435Z,19.70
2023-05-12T16:26:17.343Z,19.60
2023-05-12T16:28:45.970Z,19.50
2023-05-12T16:31:18.194Z,19.50
2023-05-12T16:33:47.276Z,19.60
2023-05-12T16:36:17.879Z,19.70
2023-05-12T16:38:54.834Z,19.60
2023-05-12T16:41:23.770Z,19.50
2023-05-12T16:43:53.607Z,19.40
2023-05-12T16:46:22.368Z,19.20
2023-05-12T16:48:50.976Z,19.00
2023-05-12T16:51:21.419Z,19.00
2023-05-12T16:53:50.064Z,18.90
2023-05-12T16:56:18.606Z,18.80
2023-05-12T16:58:47.185Z,18.70
2023-05-12T17:01:15.825Z,18.60
2023-05-12T17:06:13.334Z,18.40
2023-05-12T17:08:43.454Z,18.30
2023-05-12T17:11:12.045Z,18.30
2023-05-12T17:13:40.672Z,18.30
2023-05-12T17:16:09.339Z,18.10
2023-05-12T17:21:11.898Z,18.00
2023-05-12T17:23:41.357Z,18.00
2023-05-12T17:26:11.328Z,17.80
2023-05-12T17:28:40.132Z,17.80
2023-05-12T17:31:08.840Z,17.70
2023-05-12T17:33:37.631Z,17.50
2023-05-12T17:36:12.267Z,17.50
2023-05-12T17:38:42.396Z,17.40
2023-05-12T17:41:12.521Z,17.20
2023-05-12T17:43:41.628Z,17.10
2023-05-12T17:46:10.431Z,17.00
2023-05-12T17:48:39.330Z,16.90
2023-05-12T17:51:08.449Z,16.80
2023-05-12T17:53:37.202Z,16.60
2023-05-12T17:56:06.063Z,16.60
2023-05-12T17:58:36.442Z,16.40
2023-05-12T18:01:05.120Z,16.30
2023-05-12T18:03:33.971Z,16.10
2023-05-12T18:06:05.130Z,16.00
2023-05-12T18:08:33.935Z,15.90
2023-05-12T18:11:02.984Z,15.80
2023-05-12T18:13:31.810Z,15.70
2023-05-12T18:16:02.176Z,15.50
2023-05-12T18:18:31.157Z,15.40
2023-05-12T18:20:59.875Z,15.30
2023-05-12T18:23:28.511Z,15.10
2023-05-12T18:25:57.698Z,14.90
2023-05-12T18:28:26.377Z,14.80
2023-05-12T18:30:58.007Z,14.70
2023-05-12T18:33:30.880Z,14.60
2023-05-12T18:36:01.197Z,14.40
2023-05-12T18:38:29.936Z,14.30
2023-05-12T18:40:58.487Z,14.20
2023-05-12T18:43:30.903Z,14.10
2023-05-12T18:45:59.960Z,14.00
2023-05-12T18:48:30.150Z,14.00
2023-05-12T18:50:59.112Z,13.90
2023-05-12T18:53:28.053Z,13.80
2023-05-12T18:55:56.623Z,13.60
2023-05-12T18:58:25.491Z,13.50
2023-05-12T19:00:54.947Z,13.40
2023-05-12T19:03:23.525Z,13.30
2023-05-12T19:05:53.942Z,13.20
2023-05-12T19:08:22.705Z,13.10
2023-05-12T19:10:51.402Z,13.00
2023-05-12T19:13:20.255Z,12.90
2023-05-12T19:15:49.185Z,12.80
2023-05-12T19:18:18.532Z,12.70
2023-05-12T19:20:47.216Z,12.70
2023-05-12T19:23:17.448Z,12.60
2023-05-12T19:25:46.308Z,12.50
2023-05-12T19:28:15.418Z,12.40
2023-05-12T19:30:44.125Z,12.40
2023-05-12T19:33:14.176Z,12.30
2023-05-12T19:35:43.993Z,12.20
2023-05-12T19:38:12.577Z,12.10
2023-05-12T19:40:42.596Z,12.00
2023-05-12T19:43:12.802Z,11.90
2023-05-12T19:45:42.354Z,11.90
2023-05-12T19:48:11.464Z,11.80
2023-05-12T19:50:40.153Z,11.70
2023-05-12T19:53:11.304Z,11.60
2023-05-12T19:55:41.611Z,11.50
2023-05-12T19:58:10.698Z,11.40
2023-05-12T20:00:39.691Z,11.30
2023-05-12T20:03:08.763Z,11.30
2023-05-12T20:05:39.347Z,11.20
2023-05-12T20:08:08.074Z,11.10
2023-05-12T20:10:36.691Z,11.10
2023-05-12T20:13:06.782Z,11.00
2023-05-12T20:15:35.350Z,10.90
2023-05-12T20:18:03.983Z,10.90
2023-05-12T20:20:32.610Z,10.80
2023-05-12T20:23:01.228Z,10.70
2023-05-12T20:25:31.686Z,10.60
2023-05-12T20:28:00.298Z,10.60
2023-05-12T20:30:30.285Z,10.50
2023-05-12T20:32:58.850Z,10.50
2023-05-12T20:35:27.440Z,10.40
2023-05-12T20:37:56.082Z,10.30
2023-05-12T20:40:24.900Z,10.30
2023-05-12T20:42:53.371Z,10.20
2023-05-12T20:45:22.400Z,10.20
2023-05-12T20:47:52.582Z,10.10
2023-05-12T20:50:21.456Z,10.00
2023-05-12T20:52:50.463Z,10.00
2023-05-12T20:55:19.129Z,10.00
2023-05-12T20:57:47.722Z,9.90
2023-05-12T21:00:17.538Z,9.90
2023-05-12T21:02:49.308Z,9.80
2023-05-12T21:05:19.658Z,9.80
2023-05-12T21:07:48.441Z,9.80
2023-05-12T21:10:17.041Z,9.80
2023-05-12T21:12:45.642Z,9.70
2023-05-12T21:15:14.536Z,9.70
2023-05-12T21:17:43.554Z,9.70
2023-05-12T21:20:13.573Z,9.60
2023-05-12T21:22:43.516Z,9.60
2023-05-12T21:25:12.086Z,9.50
2023-05-12T21:27:41.703Z,9.40
2023-05-12T21:30:11.861Z,9.40
2023-05-12T21:32:41.034Z,9.30
2023-05-12T21:35:09.940Z,9.30
2023-05-12T21:37:38.712Z,9.20
2023-05-12T21:40:10.263Z,9.20
2023-05-12T21:42:38.894Z,9.20
2023-05-12T21:45:08.624Z,9.10
2023-05-12T21:47:37.316Z,9.10
2023-05-12T21:50:06.501Z,9.10
2023-05-12T21:52:35.226Z,9.00
2023-05-12T21:55:04.908Z,9.00
2023-05-12T21:57:34.846Z,9.00
2023-05-12T22:00:04.345Z,9.00
2023-05-12T22:02:32.946Z,8.90
2023-05-12T22:05:01.554Z,8.90
2023-05-12T22:07:30.068Z,8.80
2023-05-12T22:09:58.675Z,8.80
2023-05-12T22:12:27.244Z,8.80
2023-05-12T22:14:57.278Z,8.80
2023-05-12T22:17:25.891Z,8.70
2023-05-12T22:19:54.683Z,8.70
2023-05-12T22:22:23.407Z,8.70
2023-05-12T22:24:52.054Z,8.70
2023-05-12T22:27:22.387Z,8.70
2023-05-12T22:29:51.031Z,8.70
2023-05-12T22:32:21.213Z,8.70
2023-05-12T22:34:49.824Z,8.70
2023-05-12T22:37:18.841Z,8.80
2023-05-12T22:39:47.608Z,8.70
2023-05-12T22:42:16.164Z,8.70
2023-05-12T22:44:44.890Z,8.70
2023-05-12T22:47:13.830Z,8.60
2023-05-12T22:49:43.821Z,8.60
2023-05-12T22:52:12.374Z,8.60
2023-05-12T22:54:40.972Z,8.70
2023-05-12T22:57:09.595Z,8.70
2023-05-12T22:59:38.220Z,8.70
2023-05-12T23:02:07.266Z,8.80
2023-05-12T23:04:35.778Z,8.90
2023-05-12T23:07:07.747Z,8.90
2023-05-12T23:09:37.902Z,9.00
2023-05-12T23:12:07.272Z,9.00
2023-05-12T23:14:35.942Z,8.90
2023-05-12T23:17:04.508Z,8.80
2023-05-12T23:19:33.053Z,8.80
2023-05-12T23:22:01.608Z,8.70
2023-05-12T23:24:31.518Z,8.60
2023-05-12T23:27:00.055Z,8.60
2023-05-12T23:29:29.418Z,8.60
2023-05-12T23:31:58.980Z,8.60
2023-05-12T23:34:27.715Z,8.50
2023-05-12T23:36:56.389Z,8.50
2023-05-12T23:39:25.032Z,8.40
2023-05-12T23:41:54.986Z,8.40
2023-05-12T23:44:23.508Z,8.40
2023-05-12T23:46:52.268Z,8.40
2023-05-12T23:49:20.949Z,8.40
2023-05-12T23:51:49.681Z,8.50
2023-05-12T23:54:18.209Z,8.40
2023-05-12T23:56:47.058Z,8.40
2023-05-12T23:59:17.214Z,8.40
